createdAt,value
2022-12-25T00:00:20.425Z,100904.00
2022-12-25T00:05:12.571Z,100981.91
2022-12-25T00:10:06.022Z,100969.84
2022-12-25T00:14:57.643Z,100983.28
2022-12-25T00:19:49.297Z,100918.03
2022-12-25T00:24:40.887Z,100910.88
2022-12-25T00:29:32.743Z,100981.31
2022-12-25T00:34:25.099Z,100981.94
2022-12-25T00:39:16.711Z,100969.84
2022-12-25T00:44:10.760Z,100961.31
2022-12-25T00:49:03.013Z,100939.41
2022-12-25T00:53:56.108Z,100910.47
2022-12-25T00:58:47.700Z,100992.06
2022-12-25T01:03:39.292Z,100989.69
2022-12-25T01:08:34.090Z,100984.06
2022-12-25T01:13:28.510Z,100987.31
2022-12-25T01:18:21.911Z,100929.16
2022-12-25T01:23:14.370Z,100993.19
2022-12-25T01:28:06.551Z,100990.44
2022-12-25T01:32:58.229Z,100835.91
2022-12-25T01:37:52.805Z,100994.81
2022-12-25T01:42:44.877Z,100986.81
2022-12-25T01:47:36.432Z,100805.75
2022-12-25T01:52:29.059Z,100982.75
2022-12-25T01:57:27.053Z,100985.44
2022-12-25T02:02:21.416Z,100983.19
2022-12-25T02:07:22.386Z,100998.19
2022-12-25T02:12:21.979Z,100998.00
2022-12-25T02:17:19.520Z,100945.84
2022-12-25T02:22:39.444Z,100965.06
2022-12-25T02:27:52.480Z,100853.22
2022-12-25T02:33:16.153Z,101003.97
2022-12-25T02:38:19.471Z,100921.53
2022-12-25T02:43:38.162Z,100956.66
2022-12-25T02:48:52.665Z,101005.19
2022-12-25T02:54:05.464Z,100950.41
2022-12-25T02:59:17.560Z,100998.56
2022-12-25T03:04:32.310Z,100979.78
2022-12-25T03:09:46.868Z,100972.31
2022-12-25T03:14:57.625Z,100958.16
2022-12-25T03:20:07.951Z,100962.31
2022-12-25T03:25:18.751Z,100900.38
2022-12-25T03:30:30.425Z,100910.69
2022-12-25T03:35:49.477Z,100900.94
2022-12-25T03:41:31.001Z,100952.34
2022-12-25T03:46:47.174Z,100961.41
2022-12-25T03:51:59.108Z,100548.25
2022-12-25T03:57:09.903Z,100755.88
2022-12-25T04:02:20.163Z,100919.50
2022-12-25T04:07:33.621Z,100913.25
2022-12-25T04:12:43.671Z,100891.78
2022-12-25T04:17:54.016Z,100930.63
2022-12-25T04:23:04.836Z,100943.91
2022-12-25T04:28:22.306Z,100945.50
2022-12-25T04:33:32.501Z,100941.72
2022-12-25T04:38:24.524Z,100832.22
2022-12-25T04:43:20.174Z,100953.22
2022-12-25T04:48:11.762Z,100872.00
2022-12-25T04:53:03.474Z,100937.88
2022-12-25T04:57:55.048Z,100930.22
2022-12-25T05:02:47.437Z,100935.00
2022-12-25T05:07:39.082Z,100934.53
2022-12-25T05:12:30.669Z,100912.34
2022-12-25T05:17:22.305Z,100859.81
2022-12-25T05:22:14.664Z,100828.91
2022-12-25T05:27:06.344Z,100890.78
2022-12-25T05:31:58.063Z,100896.63
2022-12-25T05:36:49.660Z,100848.69
2022-12-25T05:41:41.211Z,100836.38
2022-12-25T05:46:32.772Z,100891.81
2022-12-25T05:51:26.014Z,100725.88
2022-12-25T05:56:17.652Z,100805.72
2022-12-25T06:01:18.398Z,100844.44
2022-12-25T06:06:10.379Z,100842.88
2022-12-25T06:11:04.668Z,100739.13
2022-12-25T06:15:56.303Z,100828.72
2022-12-25T06:20:48.986Z,100895.31
2022-12-25T06:25:40.935Z,100837.50
2022-12-25T06:30:33.709Z,100855.06
2022-12-25T06:35:26.727Z,100849.41
2022-12-25T06:40:20.081Z,100771.34
2022-12-25T06:45:11.790Z,100707.59
2022-12-25T06:50:06.101Z,100811.28
2022-12-25T06:54:57.614Z,100752.16
2022-12-25T06:59:54.737Z,100621.66
2022-12-25T07:04:47.720Z,100725.03
2022-12-25T07:09:43.139Z,100758.16
2022-12-25T07:14:34.656Z,100761.78
2022-12-25T07:19:26.415Z,100767.41
2022-12-25T07:24:22.193Z,100733.91
2022-12-25T07:29:16.171Z,100687.38
2022-12-25T07:34:08.166Z,100688.22
2022-12-25T07:38:59.745Z,100731.34
2022-12-25T07:43:54.014Z,100759.41
2022-12-25T07:48:45.606Z,100758.19
2022-12-25T07:53:38.090Z,100766.66
2022-12-25T07:58:30.226Z,100769.50
2022-12-25T08:03:21.945Z,100744.06
2022-12-25T08:08:13.733Z,100630.59
2022-12-25T08:13:09.095Z,100678.78
2022-12-25T08:18:05.779Z,100656.22
2022-12-25T08:22:57.372Z,100741.28
2022-12-25T08:27:48.923Z,100687.22
2022-12-25T08:32:40.504Z,100683.41
2022-12-25T08:37:32.230Z,100685.03
2022-12-25T08:42:23.994Z,100717.88
2022-12-25T08:47:15.557Z,100723.13
2022-12-25T08:52:07.771Z,100698.53
2022-12-25T08:57:03.019Z,100714.88
2022-12-25T09:01:55.057Z,100667.13
2022-12-25T09:06:46.758Z,100679.41
2022-12-25T09:11:38.327Z,100719.53
2022-12-25T09:16:30.051Z,100659.09
2022-12-25T09:21:22.720Z,100703.81
2022-12-25T09:26:16.218Z,100704.22
2022-12-25T09:31:07.897Z,100749.34
2022-12-25T09:36:02.163Z,100745.13
2022-12-25T09:41:03.596Z,100745.72
2022-12-25T09:45:57.230Z,100689.03
2022-12-25T09:50:54.559Z,100787.44
2022-12-25T09:56:09.229Z,100778.56
2022-12-25T10:01:31.179Z,100758.19
2022-12-25T10:06:30.514Z,100765.25
2022-12-25T10:11:33.672Z,100700.72
2022-12-25T10:16:46.695Z,100762.84
2022-12-25T10:21:38.708Z,100745.50
2022-12-25T10:26:33.237Z,100729.00
2022-12-25T10:31:28.394Z,100724.56
2022-12-25T10:36:26.811Z,100717.13
2022-12-25T10:41:49.925Z,100696.16
2022-12-25T10:46:47.350Z,100695.75
2022-12-25T10:51:39.723Z,100664.31
2022-12-25T10:56:31.277Z,100670.16
2022-12-25T11:01:27.989Z,100706.25
2022-12-25T11:06:28.940Z,100637.53
2022-12-25T11:11:21.561Z,100658.50
2022-12-25T11:16:15.165Z,100521.75
2022-12-25T11:21:27.955Z,100602.09
2022-12-25T11:26:19.552Z,100545.50
2022-12-25T11:31:19.592Z,100578.91
2022-12-25T11:36:28.507Z,100569.63
2022-12-25T11:41:23.196Z,100447.66
2022-12-25T11:46:26.665Z,100489.47
2022-12-25T11:51:19.899Z,100460.13
2022-12-25T11:56:18.533Z,100524.84
2022-12-25T12:01:44.521Z,100506.28
2022-12-25T12:07:00.142Z,100507.25
2022-12-25T12:12:07.460Z,100417.72
2022-12-25T12:17:00.220Z,100500.50
2022-12-25T12:21:55.500Z,100494.69
2022-12-25T12:26:59.313Z,100479.44
2022-12-25T12:31:52.053Z,100493.25
2022-12-25T12:36:44.619Z,100502.66
2022-12-25T12:41:48.523Z,100467.78
2022-12-25T12:46:51.375Z,100437.00
2022-12-25T12:51:42.912Z,100472.31
2022-12-25T12:56:35.237Z,100461.97
2022-12-25T13:01:26.807Z,100473.66
2022-12-25T13:06:25.504Z,100448.66
2022-12-25T13:11:24.087Z,100426.50
2022-12-25T13:16:36.197Z,100445.09
2022-12-25T13:21:29.700Z,100432.94
2022-12-25T13:26:21.266Z,100447.59
2022-12-25T13:31:13.162Z,100452.78
2022-12-25T13:36:12.297Z,100368.00
2022-12-25T13:41:22.956Z,100390.50
2022-12-25T13:46:15.874Z,100403.19
2022-12-25T13:51:15.992Z,100454.50
2022-12-25T13:56:14.986Z,100424.81
2022-12-25T14:01:07.358Z,100426.06
2022-12-25T14:06:01.681Z,100433.50
2022-12-25T14:10:54.599Z,100393.50
2022-12-25T14:15:49.001Z,100447.47
2022-12-25T14:20:42.682Z,100408.66
2022-12-25T14:25:41.611Z,100458.97
2022-12-25T14:30:33.643Z,100462.97
2022-12-25T14:35:28.735Z,100440.97
2022-12-25T14:40:21.699Z,100456.44
2022-12-25T14:45:34.638Z,100449.50
2022-12-25T14:50:28.620Z,100448.84
2022-12-25T14:55:24.531Z,100375.53
2022-12-25T15:00:45.412Z,100426.38
2022-12-25T15:05:37.916Z,100428.63
2022-12-25T15:15:49.978Z,100427.25
2022-12-25T15:20:42.463Z,100393.69
2022-12-25T15:25:34.085Z,100418.06
2022-12-25T15:30:25.744Z,100354.00
2022-12-25T15:35:22.288Z,100421.69
2022-12-25T15:40:16.239Z,100336.28
2022-12-25T15:45:28.658Z,100403.44
2022-12-25T15:50:21.979Z,100346.50
2022-12-25T15:55:16.561Z,100411.09
2022-12-25T16:00:13.435Z,100406.66
2022-12-25T16:05:10.329Z,100407.91
2022-12-25T16:10:02.431Z,100406.88
2022-12-25T16:14:54.765Z,100393.31
2022-12-25T16:19:46.383Z,100396.16
2022-12-25T16:24:37.935Z,100384.84
2022-12-25T16:29:29.512Z,100380.63
2022-12-25T16:34:22.168Z,100335.47
2022-12-25T16:39:13.755Z,100387.28
2022-12-25T16:44:09.605Z,100404.41
2022-12-25T16:49:01.252Z,100388.50
2022-12-25T16:53:53.557Z,100394.34
2022-12-25T16:58:46.876Z,100387.84
2022-12-25T17:03:40.604Z,100395.88
2022-12-25T17:08:32.171Z,100319.88
2022-12-25T17:13:23.809Z,100366.19
2022-12-25T17:18:21.711Z,100397.34
2022-12-25T17:23:13.340Z,100392.06
2022-12-25T17:28:04.980Z,100347.16
2022-12-25T17:32:57.543Z,100327.53
2022-12-25T17:37:49.147Z,100401.78
2022-12-25T17:42:41.314Z,100365.97
2022-12-25T17:47:33.279Z,100400.97
2022-12-25T17:52:24.980Z,100397.91
2022-12-25T17:57:16.849Z,100372.09
2022-12-25T18:02:10.371Z,100402.88
2022-12-25T18:07:03.278Z,100400.38
2022-12-25T18:11:55.260Z,100318.34
2022-12-25T18:16:47.413Z,100319.72
2022-12-25T18:21:41.293Z,100370.81
2022-12-25T18:26:33.559Z,100273.56
2022-12-25T18:31:27.421Z,100373.75
2022-12-25T18:36:23.228Z,100367.28
2022-12-25T18:41:15.168Z,100370.81
2022-12-25T18:46:09.956Z,100263.47
2022-12-25T18:51:08.323Z,100387.06
2022-12-25T18:56:07.080Z,100392.47
2022-12-25T19:00:59.033Z,100369.75
2022-12-25T19:05:50.604Z,100377.84
2022-12-25T19:10:44.063Z,100342.09
2022-12-25T19:15:40.312Z,100380.16
2022-12-25T19:20:32.017Z,100393.88
2022-12-25T19:25:23.577Z,100396.53
2022-12-25T19:30:15.251Z,100279.47
2022-12-25T19:35:07.275Z,100376.38
2022-12-25T19:39:59.545Z,100406.28
2022-12-25T19:44:51.695Z,100341.34
2022-12-25T19:49:45.220Z,100305.13
2022-12-25T19:54:40.603Z,100423.22
2022-12-25T19:59:32.657Z,100376.50
2022-12-25T20:04:24.379Z,100403.19
2022-12-25T20:09:21.227Z,100402.34
2022-12-25T20:14:16.121Z,100313.97
2022-12-25T20:19:08.480Z,100352.00
2022-12-25T20:24:00.275Z,100363.34
2022-12-25T20:28:52.796Z,100310.25
2022-12-25T20:33:45.014Z,100359.41
2022-12-25T20:38:37.431Z,100372.38
2022-12-25T20:43:29.208Z,100334.75
2022-12-25T20:48:20.890Z,100409.72
2022-12-25T20:53:12.600Z,100401.41
2022-12-25T20:58:04.172Z,100400.88
2022-12-25T21:02:55.807Z,100112.09
2022-12-25T21:07:47.641Z,100397.22
2022-12-25T21:12:39.299Z,100390.38
2022-12-25T21:17:32.713Z,100411.59
2022-12-25T21:22:24.444Z,100371.03
2022-12-25T21:27:16.021Z,100412.06
2022-12-25T21:32:26.725Z,100420.56
2022-12-25T21:37:20.498Z,100421.69
2022-12-25T21:42:12.465Z,100436.34
2022-12-25T21:47:04.170Z,100406.25
2022-12-25T21:52:07.806Z,100435.59
2022-12-25T21:56:59.369Z,100383.47
2022-12-25T22:01:52.965Z,100436.97
2022-12-25T22:07:04.261Z,100378.13
2022-12-25T22:12:14.633Z,100409.25
2022-12-25T22:17:25.841Z,100435.72
2022-12-25T22:22:22.971Z,100439.25
2022-12-25T22:27:14.908Z,100450.94
2022-12-25T22:32:06.790Z,100457.03
2022-12-25T22:36:59.115Z,100468.25
2022-12-25T22:41:54.959Z,100466.75
2022-12-25T22:46:47.152Z,100299.09
2022-12-25T22:51:38.746Z,100413.84
2022-12-25T22:56:30.323Z,100478.00
2022-12-25T23:01:21.986Z,100456.56
2022-12-25T23:06:13.911Z,100461.38
2022-12-25T23:11:05.809Z,100471.66
2022-12-25T23:15:57.439Z,100372.25
2022-12-25T23:21:08.184Z,100491.81
2022-12-25T23:26:09.129Z,100408.56
2022-12-25T23:31:00.792Z,100496.63
2022-12-25T23:35:52.606Z,100505.09
2022-12-25T23:40:44.208Z,100442.81
2022-12-25T23:45:35.747Z,100432.25
2022-12-25T23:50:27.364Z,100453.66
2022-12-25T23:55:18.903Z,100480.78
